Mount Zion, Iowa
Current Conditions -  °F | °C
As of 8:15 AM on Sunday 25 Jan 2015 (Local Time) from KFFL Reporting Station
Light Rain Light Rain  
Wind Chill: 24°   Ceiling: 500
Heat Index: 34°   Visibility: 2.5mi
Dew Point: 34°   Wind: 16mph
Humidity: 100%   Direction: 50°NE
Pressure: 29.65"   Gusts: NA
Location:  40.7687°N, 92.0788°W
Report Text: KFFL 251415Z AUTO 05014KT 2 1/2SM -RA OVC005 01/01 A2965 RMK AO2
Loading
Personal Weather Stations






























Interactive Weather Map New forecast layout! Learn more

10-Day Weather Forecast

Advertisements
Track Severe Weather on mobile